Time;durP1;ratioP1;P1;durP2;ratioP2;P2;SDS_P1;SDS_P2;PMS_P1;PMS_P2;Temp;Humidity;BMP_temperature;BMP_pressure;BME280_temperature;BME280_humidity;BME280_pressure;Samples;Min_cycle;Max_cycle;Signal;HPM_P1;HPM_P2
2023/05/25 00:01:27;;;;;;;3.88;2.88;;;;;;;;;;5024598;28;20069;-74
2023/05/25 00:03:55;;;;;;;3.08;2.78;;;;;;;;;;5023392;28;20037;-74
2023/05/25 00:06:24;;;;;;;2.70;2.50;;;;;;;;;;5022560;28;20518;-74
2023/05/25 00:08:54;;;;;;;2.78;2.38;;;;;;;;;;5024027;28;20095;-74
2023/05/25 00:11:22;;;;;;;2.60;2.40;;;;;;;;;;5023812;28;20053;-75
2023/05/25 00:13:50;;;;;;;2.40;2.30;;;;;;;;;;5024137;28;20495;-74
2023/05/25 00:16:17;;;;;;;2.53;2.33;;;;;;;;;;5021978;28;20077;-74
2023/05/25 00:18:47;;;;;;;3.72;2.72;;;;;;;;;;5022540;28;20041;-74
2023/05/25 00:21:14;;;;;;;3.40;3.00;;;;;;;;;;5026809;28;20041;-74
2023/05/25 00:23:43;;;;;;;2.67;2.47;;;;;;;;;;5006291;28;20049;-74
2023/05/25 00:26:10;;;;;;;2.40;2.20;;;;;;;;;;5022766;28;20079;-74
2023/05/25 00:28:37;;;;;;;2.15;2.00;;;;;;;;;;5024424;28;20050;-74
2023/05/25 00:31:05;;;;;;;2.30;2.20;;;;;;;;;;5005382;28;20045;-74
2023/05/25 00:33:32;;;;;;;2.28;2.17;;;;;;;;;;5024395;28;20168;-74
2023/05/25 00:36:02;;;;;;;2.38;2.10;;;;;;;;;;5021781;28;20435;-74
2023/05/25 00:38:29;;;;;;;3.35;2.00;;;;;;;;;;5025268;28;20500;-74
2023/05/25 00:40:56;;;;;;;2.92;2.72;;;;;;;;;;5005471;28;20065;-74
2023/05/25 00:43:24;;;;;;;2.22;2.13;;;;;;;;;;5025039;28;20045;-74
2023/05/25 00:45:52;;;;;;;3.35;2.70;;;;;;;;;;5006210;28;20049;-74
2023/05/25 00:48:19;;;;;;;2.60;2.40;;;;;;;;;;5020293;28;20072;-74
2023/05/25 00:50:47;;;;;;;2.53;2.40;;;;;;;;;;5022676;28;20551;-74
2023/05/25 00:53:14;;;;;;;2.58;2.38;;;;;;;;;;5022557;28;20316;-74
2023/05/25 00:55:59;;;;;;;2.70;2.50;;;;;;;;;;5018535;28;20527;-74
2023/05/25 00:58:27;;;;;;;2.80;2.60;;;;;;;;;;5021853;28;20396;-75
2023/05/25 01:00:56;;;;;;;2.83;2.63;;;;;;;;;;5022123;28;20084;-74
2023/05/25 01:03:27;;;;;;;2.72;2.63;;;;;;;;;;5003672;28;20210;-74
2023/05/25 01:05:56;;;;;;;2.15;2.03;;;;;;;;;;5004743;28;20046;-74
2023/05/25 01:08:24;;;;;;;2.58;2.42;;;;;;;;;;5019390;28;20100;-74
2023/05/25 01:10:53;;;;;;;2.90;2.70;;;;;;;;;;5024121;28;20041;-74
2023/05/25 01:13:21;;;;;;;2.45;2.35;;;;;;;;;;5021438;28;20103;-74
2023/05/25 01:15:49;;;;;;;2.50;2.28;;;;;;;;;;5021883;28;20050;-74
2023/05/25 01:18:16;;;;;;;2.35;2.25;;;;;;;;;;5019637;28;20045;-74
2023/05/25 01:21:18;;;;;;;2.72;2.53;;;;;;;;;;5002623;28;20137;-74
2023/05/25 01:23:47;;;;;;;2.80;2.60;;;;;;;;;;4986959;28;20065;-74
2023/05/25 01:26:17;;;;;;;2.58;2.38;;;;;;;;;;5021599;28;20045;-74
2023/05/25 01:28:49;;;;;;;2.92;2.72;;;;;;;;;;5024540;28;20084;-74
2023/05/25 01:31:18;;;;;;;3.08;2.88;;;;;;;;;;5003590;28;20054;-74
2023/05/25 01:33:46;;;;;;;2.40;2.28;;;;;;;;;;5004718;28;20458;-75
2023/05/25 01:36:14;;;;;;;2.72;2.53;;;;;;;;;;5023165;28;20121;-74
2023/05/25 01:38:41;;;;;;;2.70;2.60;;;;;;;;;;5023624;28;20107;-74
2023/05/25 01:41:09;;;;;;;3.20;2.47;;;;;;;;;;5009140;28;20429;-74
2023/05/25 01:43:37;;;;;;;2.90;2.70;;;;;;;;;;5021041;28;20045;-74
2023/05/25 01:46:19;;;;;;;2.78;2.58;;;;;;;;;;5004480;28;20045;-74
2023/05/25 01:48:53;;;;;;;2.63;2.42;;;;;;;;;;5017682;28;20065;-74
2023/05/25 01:51:27;;;;;;;2.50;2.40;;;;;;;;;;5021250;28;20546;-74
2023/05/25 01:53:59;;;;;;;2.65;2.45;;;;;;;;;;5006193;28;20077;-74
2023/05/25 01:56:27;;;;;;;;;;;;;;;;;;5010350;28;20057;-74
2023/05/25 01:58:56;;;;;;;2.85;2.55;;;;;;;;;;5006477;28;19920;-74
2023/05/25 02:01:24;;;;;;;2.83;2.50;;;;;;;;;;5003448;28;20496;-74
2023/05/25 02:03:51;;;;;;;2.50;2.30;;;;;;;;;;5021938;28;20041;-74
2023/05/25 02:06:19;;;;;;;1.92;1.83;;;;;;;;;;5021801;28;20107;-74
2023/05/25 02:08:46;;;;;;;2.50;2.30;;;;;;;;;;5003405;28;20046;-74
2023/05/25 02:11:14;;;;;;;5.05;2.45;;;;;;;;;;5005170;28;20095;-74
2023/05/25 02:13:41;;;;;;;2.25;2.05;;;;;;;;;;5003352;28;20173;-74
2023/05/25 02:16:09;;;;;;;2.40;2.20;;;;;;;;;;5018602;28;20045;-74
2023/05/25 02:18:43;;;;;;;2.10;2.00;;;;;;;;;;5003538;28;20077;-74
2023/05/25 02:21:11;;;;;;;2.80;2.58;;;;;;;;;;5021130;28;20069;-74
2023/05/25 02:23:38;;;;;;;5.00;2.72;;;;;;;;;;5021595;28;21538;-74
2023/05/25 02:26:06;;;;;;;2.88;2.55;;;;;;;;;;5020490;28;20053;-75
2023/05/25 02:28:33;;;;;;;4.88;2.88;;;;;;;;;;5004078;28;20057;-75
2023/05/25 02:31:01;;;;;;;2.95;2.40;;;;;;;;;;4999005;28;20041;-74
2023/05/25 02:33:29;;;;;;;2.65;2.45;;;;;;;;;;5003499;28;20056;-75
2023/05/25 02:35:57;;;;;;;2.35;1.95;;;;;;;;;;5003830;28;20054;-75
2023/05/25 02:38:26;;;;;;;2.30;2.15;;;;;;;;;;5004925;28;20055;-75
2023/05/25 02:40:53;;;;;;;3.13;2.22;;;;;;;;;;5007587;28;20132;-75
2023/05/25 02:43:23;;;;;;;2.60;2.40;;;;;;;;;;5008347;28;20050;-75
2023/05/25 02:45:50;;;;;;;3.25;2.30;;;;;;;;;;5006776;28;20045;-75
2023/05/25 02:48:17;;;;;;;2.40;2.10;;;;;;;;;;5005710;28;20053;-75
2023/05/25 02:50:45;;;;;;;2.45;2.15;;;;;;;;;;5021380;28;20037;-75
2023/05/25 02:53:13;;;;;;;2.50;2.30;;;;;;;;;;5007614;28;20557;-75
2023/05/25 02:55:42;;;;;;;2.83;2.55;;;;;;;;;;5005358;28;20538;-75
2023/05/25 02:58:15;;;;;;;4.20;2.65;;;;;;;;;;5007228;28;20045;-75
2023/05/25 03:01:04;;;;;;;3.78;2.50;;;;;;;;;;5000234;28;20045;-75
2023/05/25 03:03:35;;;;;;;3.22;2.13;;;;;;;;;;5001554;28;20495;-75
2023/05/25 03:09:11;;;;;;;2.53;2.33;;;;;;;;;;4917056;29;20070;-77
2023/05/25 03:11:39;;;;;;;3.53;2.45;;;;;;;;;;4909069;29;20048;-76
2023/05/25 03:14:10;;;;;;;3.25;2.30;;;;;;;;;;4907453;29;20048;-76
2023/05/25 03:16:38;;;;;;;2.58;2.20;;;;;;;;;;4898778;29;20058;-77
2023/05/25 03:19:07;;;;;;;3.47;2.25;;;;;;;;;;4905140;29;20236;-77
2023/05/25 03:21:36;;;;;;;3.00;1.95;;;;;;;;;;4903435;29;20048;-76
2023/05/25 03:24:04;;;;;;;2.33;2.13;;;;;;;;;;4904848;29;20413;-77
2023/05/25 03:26:32;;;;;;;4.15;2.30;;;;;;;;;;4904745;29;20067;-76
2023/05/25 03:29:01;;;;;;;1.95;1.85;;;;;;;;;;4907028;29;20062;-76
2023/05/25 03:31:29;;;;;;;2.10;2.00;;;;;;;;;;4902722;29;20044;-76
2023/05/25 03:34:00;;;;;;;2.20;2.00;;;;;;;;;;4906587;29;20062;-76
2023/05/25 03:36:29;;;;;;;2.83;2.10;;;;;;;;;;4904300;29;20138;-77
2023/05/25 03:38:57;;;;;;;2.17;2.03;;;;;;;;;;4909770;29;20071;-76
2023/05/25 03:41:24;;;;;;;2.47;2.25;;;;;;;;;;4906358;29;20071;-76
2023/05/25 03:43:51;;;;;;;2.05;1.90;;;;;;;;;;4908667;29;20375;-76
2023/05/25 03:46:19;;;;;;;2.22;2.00;;;;;;;;;;4906565;29;20047;-76
2023/05/25 03:48:47;;;;;;;2.85;1.77;;;;;;;;;;4904828;29;20036;-76
2023/05/25 03:51:15;;;;;;;2.78;2.15;;;;;;;;;;4905184;29;20052;-76
2023/05/25 03:53:42;;;;;;;2.40;1.75;;;;;;;;;;4905806;29;20051;-76
2023/05/25 03:56:10;;;;;;;2.10;2.00;;;;;;;;;;4901958;29;20777;-76
2023/05/25 03:58:37;;;;;;;3.92;2.05;;;;;;;;;;4906514;29;20668;-76
2023/05/25 04:01:04;;;;;;;3.00;2.00;;;;;;;;;;4904039;29;20048;-77
2023/05/25 04:03:32;;;;;;;1.98;1.80;;;;;;;;;;4902351;29;20585;-77
2023/05/25 04:06:00;;;;;;;2.33;2.00;;;;;;;;;;4906762;29;20044;-77
2023/05/25 04:08:28;;;;;;;2.28;2.10;;;;;;;;;;4901396;29;20045;-77
2023/05/25 04:10:57;;;;;;;3.53;2.03;;;;;;;;;;4890877;29;20282;-77
2023/05/25 04:13:26;;;;;;;2.10;1.90;;;;;;;;;;4905319;29;20052;-76
2023/05/25 04:15:53;;;;;;;4.15;2.17;;;;;;;;;;4904140;29;20380;-76
2023/05/25 04:18:25;;;;;;;2.55;2.20;;;;;;;;;;4904541;29;20063;-76
2023/05/25 04:20:54;;;;;;;3.03;2.35;;;;;;;;;;4904841;29;20513;-77
2023/05/25 04:23:22;;;;;;;2.00;1.90;;;;;;;;;;4905743;29;20048;-78
2023/05/25 04:25:53;;;;;;;2.00;1.90;;;;;;;;;;4903450;29;20127;-77
2023/05/25 04:28:21;;;;;;;2.13;2.00;;;;;;;;;;4904704;29;20048;-77
2023/05/25 04:30:55;;;;;;;2.30;2.08;;;;;;;;;;4904106;29;20618;-77
2023/05/25 04:33:37;;;;;;;3.72;2.20;;;;;;;;;;4905571;29;20060;-78
2023/05/25 04:36:15;;;;;;;3.05;2.10;;;;;;;;;;4887882;29;20060;-78
2023/05/25 04:38:47;;;;;;;2.83;2.38;;;;;;;;;;4904886;29;20056;-78
2023/05/25 04:41:15;;;;;;;2.30;1.70;;;;;;;;;;4906388;29;20135;-78
2023/05/25 04:43:49;;;;;;;2.47;1.80;;;;;;;;;;4907020;29;20040;-76
2023/05/25 04:46:38;;;;;;;2.30;2.10;;;;;;;;;;4887176;29;20143;-77
2023/05/25 04:49:09;;;;;;;2.60;2.40;;;;;;;;;;4905320;29;20070;-77
2023/05/25 04:51:36;;;;;;;2.33;2.13;;;;;;;;;;4903047;29;20036;-77
2023/05/25 04:54:04;;;;;;;2.20;2.10;;;;;;;;;;4903245;29;20499;-77
2023/05/25 04:56:32;;;;;;;2.25;1.98;;;;;;;;;;4899165;29;20044;-77
2023/05/25 04:59:00;;;;;;;2.75;2.00;;;;;;;;;;4918368;29;20052;-77
2023/05/25 05:01:28;;;;;;;1.98;1.88;;;;;;;;;;4903206;29;20114;-77
2023/05/25 05:03:59;;;;;;;2.70;1.87;;;;;;;;;;4904336;29;20450;-77
2023/05/25 05:06:26;;;;;;;2.25;2.00;;;;;;;;;;4899474;29;20660;-77
2023/05/25 05:08:55;;;;;;;1.90;1.80;;;;;;;;;;4902433;29;20058;-77
2023/05/25 05:11:22;;;;;;;1.77;1.67;;;;;;;;;;4896009;29;20429;-78
2023/05/25 05:13:51;;;;;;;2.80;2.20;;;;;;;;;;4895446;29;20056;-78
2023/05/25 05:16:19;;;;;;;5.57;1.95;;;;;;;;;;4899938;29;20421;-78
2023/05/25 05:18:48;;;;;;;3.53;2.20;;;;;;;;;;4883563;29;20298;-78
2023/05/25 05:21:16;;;;;;;2.75;2.00;;;;;;;;;;4897327;29;20681;-77
2023/05/25 05:23:43;;;;;;;2.80;2.00;;;;;;;;;;4899931;29;20588;-77
2023/05/25 05:26:13;;;;;;;3.05;2.20;;;;;;;;;;4897422;29;20048;-77
2023/05/25 05:28:42;;;;;;;2.38;2.17;;;;;;;;;;4903266;29;20147;-78
2023/05/25 05:31:10;;;;;;;4.30;2.60;;;;;;;;;;4900530;29;20301;-79
2023/05/25 05:33:39;;;;;;;2.30;2.00;;;;;;;;;;4901939;29;20499;-78
2023/05/25 05:36:07;;;;;;;2.33;2.13;;;;;;;;;;4904343;29;20082;-77
2023/05/25 05:38:36;;;;;;;3.05;1.92;;;;;;;;;;4903834;29;20056;-78
2023/05/25 05:41:12;;;;;;;2.13;1.85;;;;;;;;;;4905581;29;20058;-77
2023/05/25 05:43:42;;;;;;;3.95;2.00;;;;;;;;;;4906574;29;20059;-76
2023/05/25 05:46:09;;;;;;;2.28;1.90;;;;;;;;;;4898913;29;20079;-76
2023/05/25 05:48:40;;;;;;;2.95;2.13;;;;;;;;;;4903140;29;20681;-77
2023/05/25 05:51:08;;;;;;;2.95;2.00;;;;;;;;;;4896878;29;20127;-77
2023/05/25 05:53:36;;;;;;;3.13;2.10;;;;;;;;;;4900580;29;20049;-77
2023/05/25 05:56:05;;;;;;;2.95;2.42;;;;;;;;;;4890442;29;20062;-77
2023/05/25 05:58:34;;;;;;;4.03;2.33;;;;;;;;;;4889430;29;20578;-78
2023/05/25 06:01:03;;;;;;;3.05;2.10;;;;;;;;;;4900985;29;20051;-77
2023/05/25 06:03:31;;;;;;;3.40;1.75;;;;;;;;;;4902242;29;20055;-78
2023/05/25 06:05:59;;;;;;;2.33;1.98;;;;;;;;;;4896509;29;20044;-78
2023/05/25 06:08:27;;;;;;;2.22;2.03;;;;;;;;;;4904898;29;20068;-78
2023/05/25 06:10:54;;;;;;;2.50;1.85;;;;;;;;;;4903132;29;20071;-78
2023/05/25 06:13:22;;;;;;;2.65;1.80;;;;;;;;;;4912516;29;20504;-78
2023/05/25 06:15:50;;;;;;;2.10;1.90;;;;;;;;;;4901779;29;20063;-78
2023/05/25 06:18:22;;;;;;;2.08;1.90;;;;;;;;;;4910183;29;20067;-77
2023/05/25 06:20:49;;;;;;;1.88;1.77;;;;;;;;;;4912086;29;20079;-78
2023/05/25 06:23:17;;;;;;;2.15;1.95;;;;;;;;;;4910947;29;20052;-77
2023/05/25 06:25:45;;;;;;;3.00;2.00;;;;;;;;;;4909266;29;20356;-78
2023/05/25 06:28:13;;;;;;;2.55;2.17;;;;;;;;;;4909996;29;20455;-77
2023/05/25 06:30:41;;;;;;;3.38;2.00;;;;;;;;;;4905842;29;20044;-78
2023/05/25 06:33:10;;;;;;;4.28;1.90;;;;;;;;;;4904697;29;20111;-77
2023/05/25 06:35:37;;;;;;;3.78;2.22;;;;;;;;;;4900209;29;20078;-77
2023/05/25 06:38:05;;;;;;;2.85;2.08;;;;;;;;;;4902951;29;20536;-77
2023/05/25 06:40:32;;;;;;;3.72;2.20;;;;;;;;;;4912071;29;20044;-77
2023/05/25 06:43:01;;;;;;;1.77;1.65;;;;;;;;;;4907277;29;20048;-77
2023/05/25 06:45:49;;;;;;;2.67;2.03;;;;;;;;;;4905176;29;20399;-77
2023/05/25 06:48:16;;;;;;;2.42;1.67;;;;;;;;;;4900225;29;20061;-77
2023/05/25 06:50:45;;;;;;;2.10;1.90;;;;;;;;;;4895197;29;20120;-77
2023/05/25 06:53:12;;;;;;;2.08;1.60;;;;;;;;;;4904149;29;20417;-77
2023/05/25 06:55:40;;;;;;;1.77;1.67;;;;;;;;;;4896619;29;20057;-77
2023/05/25 06:58:07;;;;;;;2.35;1.65;;;;;;;;;;4906889;29;20053;-78
2023/05/25 07:00:35;;;;;;;2.72;2.08;;;;;;;;;;4893654;29;20071;-77
2023/05/25 07:03:03;;;;;;;3.90;2.25;;;;;;;;;;4905924;29;20511;-77
2023/05/25 07:05:30;;;;;;;1.83;1.73;;;;;;;;;;4907455;29;20136;-77
2023/05/25 07:07:58;;;;;;;1.85;1.75;;;;;;;;;;4913305;29;20072;-78
2023/05/25 07:10:25;;;;;;;1.75;1.65;;;;;;;;;;4899926;29;20048;-78
2023/05/25 07:12:53;;;;;;;1.95;1.70;;;;;;;;;;4898900;29;20043;-77
2023/05/25 07:15:21;;;;;;;1.75;1.63;;;;;;;;;;4913764;29;20493;-77
2023/05/25 07:17:49;;;;;;;3.13;2.10;;;;;;;;;;4909777;29;20131;-79
2023/05/25 07:20:16;;;;;;;2.88;1.70;;;;;;;;;;4910465;29;20051;-78
2023/05/25 07:22:46;;;;;;;2.25;1.95;;;;;;;;;;4900169;29;20442;-77
2023/05/25 07:25:14;;;;;;;1.80;1.70;;;;;;;;;;4904024;29;20040;-77
2023/05/25 07:27:42;;;;;;;4.20;2.28;;;;;;;;;;4909946;29;20044;-78
2023/05/25 07:30:09;;;;;;;2.25;1.77;;;;;;;;;;4911345;29;20056;-77
2023/05/25 07:32:37;;;;;;;3.55;2.10;;;;;;;;;;4909746;29;20119;-77
2023/05/25 07:35:05;;;;;;;2.58;2.10;;;;;;;;;;4906462;29;20049;-77
2023/05/25 07:37:33;;;;;;;2.55;1.83;;;;;;;;;;4907492;29;20134;-77
2023/05/25 07:40:00;;;;;;;1.90;1.80;;;;;;;;;;4907621;29;20056;-77
2023/05/25 07:42:33;;;;;;;2.10;1.90;;;;;;;;;;4909821;29;20055;-77
2023/05/25 07:45:01;;;;;;;2.60;2.00;;;;;;;;;;4903363;29;20574;-77
2023/05/25 07:47:28;;;;;;;2.63;1.83;;;;;;;;;;4909534;29;20602;-77
2023/05/25 07:49:56;;;;;;;2.78;1.98;;;;;;;;;;4905501;29;20072;-77
2023/05/25 07:52:24;;;;;;;3.03;1.63;;;;;;;;;;4903639;29;20053;-77
2023/05/25 07:54:51;;;;;;;2.63;1.73;;;;;;;;;;4910538;29;20059;-78
2023/05/25 07:57:19;;;;;;;2.63;1.80;;;;;;;;;;4904580;29;20575;-77
2023/05/25 07:59:47;;;;;;;2.80;2.10;;;;;;;;;;4906890;29;20048;-77
2023/05/25 08:02:14;;;;;;;1.75;1.65;;;;;;;;;;4895544;29;20139;-79
2023/05/25 08:04:42;;;;;;;1.90;1.80;;;;;;;;;;4903078;29;20443;-78
2023/05/25 08:07:10;;;;;;;2.88;1.92;;;;;;;;;;4906876;29;20051;-77
2023/05/25 08:09:38;;;;;;;3.60;2.20;;;;;;;;;;4907671;29;20052;-78
2023/05/25 08:12:05;;;;;;;3.75;1.95;;;;;;;;;;4896970;29;20600;-77
2023/05/25 08:14:40;;;;;;;2.63;1.90;;;;;;;;;;4901982;29;20135;-77
2023/05/25 08:17:07;;;;;;;3.13;2.03;;;;;;;;;;4905300;29;20225;-77
2023/05/25 08:19:35;;;;;;;2.78;1.90;;;;;;;;;;4912321;29;20052;-77
2023/05/25 08:22:03;;;;;;;2.80;1.70;;;;;;;;;;4899509;29;20403;-77
2023/05/25 08:24:30;;;;;;;2.90;2.05;;;;;;;;;;4899174;29;20083;-77
2023/05/25 08:26:58;;;;;;;4.25;2.40;;;;;;;;;;4903346;29;20055;-78
2023/05/25 08:29:25;;;;;;;2.92;1.77;;;;;;;;;;4902697;29;20087;-80
2023/05/25 08:31:53;;;;;;;2.80;1.98;;;;;;;;;;4902869;29;20499;-78
2023/05/25 08:34:21;;;;;;;4.03;1.50;;;;;;;;;;4910615;29;20463;-77
2023/05/25 08:36:48;;;;;;;2.10;1.90;;;;;;;;;;4899786;29;20056;-77
2023/05/25 08:39:17;;;;;;;1.80;1.70;;;;;;;;;;4897535;29;20079;-77
2023/05/25 08:41:45;;;;;;;3.53;1.88;;;;;;;;;;4910117;29;20048;-78
2023/05/25 08:44:14;;;;;;;2.83;2.08;;;;;;;;;;4909886;29;20466;-77
2023/05/25 08:46:41;;;;;;;3.15;1.92;;;;;;;;;;4910553;29;20056;-77
2023/05/25 08:49:10;;;;;;;2.50;2.08;;;;;;;;;;4904138;29;20139;-77
2023/05/25 08:51:41;;;;;;;8.07;2.95;;;;;;;;;;4907545;29;20048;-77
2023/05/25 08:54:10;;;;;;;5.10;2.60;;;;;;;;;;4901707;29;20094;-77
2023/05/25 08:56:44;;;;;;;4.13;2.40;;;;;;;;;;4901749;29;20613;-78
2023/05/25 08:59:17;;;;;;;2.95;1.85;;;;;;;;;;4903928;29;20135;-78
2023/05/25 09:01:46;;;;;;;2.25;1.60;;;;;;;;;;4898749;29;20405;-77
2023/05/25 09:04:14;;;;;;;2.42;2.20;;;;;;;;;;4898852;29;20064;-78
2023/05/25 09:06:44;;;;;;;3.08;1.80;;;;;;;;;;4921275;23;20226;-77
2023/05/25 09:09:29;;;;;;;2.60;1.70;;;;;;;;;;4964382;28;20070;-77
2023/05/25 09:11:58;;;;;;;2.00;1.83;;;;;;;;;;4960484;28;20134;-77
2023/05/25 09:14:27;;;;;;;1.73;1.55;;;;;;;;;;4966480;28;20047;-77
2023/05/25 09:16:57;;;;;;;1.75;1.63;;;;;;;;;;4964621;28;20039;-76
2023/05/25 09:19:26;;;;;;;2.70;2.00;;;;;;;;;;4965210;28;20054;-77
2023/05/25 09:21:56;;;;;;;2.42;1.75;;;;;;;;;;4960220;28;20072;-77
2023/05/25 09:24:43;;;;;;;2.15;1.92;;;;;;;;;;4974794;28;20051;-76
2023/05/25 09:27:16;;;;;;;3.58;1.90;;;;;;;;;;4966768;28;20130;-77
2023/05/25 09:29:48;;;;;;;3.33;2.30;;;;;;;;;;4980601;28;20285;-77
2023/05/25 09:32:18;;;;;;;2.47;1.73;;;;;;;;;;4980643;28;20082;-77
2023/05/25 09:34:47;;;;;;;1.90;1.73;;;;;;;;;;4963913;28;20058;-77
2023/05/25 09:37:19;;;;;;;3.10;1.65;;;;;;;;;;4952158;28;20059;-76
2023/05/25 09:39:50;;;;;;;2.17;1.98;;;;;;;;;;4965047;28;20162;-77
2023/05/25 09:42:19;;;;;;;3.13;1.90;;;;;;;;;;4975776;28;20185;-77
2023/05/25 09:44:47;;;;;;;2.50;2.00;;;;;;;;;;4969141;28;20444;-77
2023/05/25 09:47:17;;;;;;;1.90;1.80;;;;;;;;;;4964990;28;20066;-77
2023/05/25 09:49:48;;;;;;;2.13;1.75;;;;;;;;;;4969385;28;20051;-77
2023/05/25 09:52:17;;;;;;;;;;;;;;;;;;4964608;28;20071;-76
2023/05/25 09:54:47;;;;;;;2.80;2.00;;;;;;;;;;4965274;28;20239;-77
2023/05/25 09:57:16;;;;;;;2.22;1.80;;;;;;;;;;4971106;28;20548;-77
2023/05/25 09:59:45;;;;;;;2.33;2.10;;;;;;;;;;4952867;28;20054;-77
2023/05/25 10:02:14;;;;;;;2.28;1.70;;;;;;;;;;4969065;28;20086;-77
2023/05/25 10:04:45;;;;;;;2.15;1.80;;;;;;;;;;4975338;28;20055;-76
2023/05/25 10:07:14;;;;;;;1.88;1.63;;;;;;;;;;4958720;28;20465;-77
2023/05/25 10:09:46;;;;;;;2.53;1.92;;;;;;;;;;4967425;28;20050;-77
2023/05/25 10:12:17;;;;;;;2.50;2.03;;;;;;;;;;4962939;28;20681;-76
2023/05/25 10:14:49;;;;;;;2.45;2.13;;;;;;;;;;4969948;28;20066;-76
2023/05/25 10:17:20;;;;;;;1.70;1.58;;;;;;;;;;4960754;28;20054;-77
2023/05/25 10:19:54;;;;;;;2.70;1.73;;;;;;;;;;4957924;28;20331;-76
2023/05/25 10:22:27;;;;;;;2.15;1.85;;;;;;;;;;4963751;28;20532;-76
2023/05/25 10:25:14;;;;;;;2.80;2.05;;;;;;;;;;4963374;28;20762;-77
2023/05/25 10:27:47;;;;;;;2.47;1.80;;;;;;;;;;4971554;28;20391;-77
2023/05/25 10:30:16;;;;;;;2.58;2.17;;;;;;;;;;4948951;28;20557;-77
2023/05/25 10:32:46;;;;;;;2.30;1.85;;;;;;;;;;4952019;28;20069;-77
2023/05/25 10:35:15;;;;;;;2.13;1.92;;;;;;;;;;4964298;28;20114;-77
2023/05/25 10:37:43;;;;;;;2.92;1.70;;;;;;;;;;4961179;28;20483;-77
2023/05/25 10:40:11;;;;;;;5.05;2.42;;;;;;;;;;4969059;28;20533;-78
2023/05/25 10:42:39;;;;;;;2.13;1.90;;;;;;;;;;4980116;28;20047;-78
2023/05/25 10:45:08;;;;;;;2.95;1.50;;;;;;;;;;4960735;28;20043;-77
2023/05/25 10:47:37;;;;;;;2.20;2.00;;;;;;;;;;4961744;28;20492;-77
2023/05/25 10:50:05;;;;;;;1.80;1.70;;;;;;;;;;4973831;28;20147;-78
2023/05/25 10:52:34;;;;;;;1.90;1.50;;;;;;;;;;4965372;28;20481;-77
2023/05/25 10:55:03;;;;;;;3.90;2.10;;;;;;;;;;4965290;28;20055;-78
2023/05/25 10:57:31;;;;;;;3.75;2.08;;;;;;;;;;4973891;28;20050;-78
2023/05/25 11:00:05;;;;;;;1.98;1.60;;;;;;;;;;4973336;28;20129;-77
2023/05/25 11:02:49;;;;;;;2.53;2.13;;;;;;;;;;4971795;28;20413;-78
2023/05/25 11:05:25;;;;;;;3.30;2.15;;;;;;;;;;4973422;28;20047;-77
2023/05/25 11:07:57;;;;;;;3.55;1.77;;;;;;;;;;4972608;28;20050;-78
2023/05/25 11:10:50;;;;;;;2.35;1.75;;;;;;;;;;4973636;28;20518;-76
2023/05/25 11:13:39;;;;;;;2.25;2.00;;;;;;;;;;4964457;28;20057;-77
2023/05/25 11:16:36;;;;;;;1.63;1.50;;;;;;;;;;4986895;28;20081;-77
2023/05/25 11:19:13;;;;;;;1.65;1.55;;;;;;;;;;4959633;28;20047;-77
2023/05/25 11:21:42;;;;;;;3.38;1.60;;;;;;;;;;4959421;28;20054;-77
2023/05/25 11:24:11;;;;;;;2.60;2.17;;;;;;;;;;4960701;28;20058;-81
2023/05/25 11:26:53;;;;;;;1.90;1.80;;;;;;;;;;4959613;28;20054;-78
2023/05/25 11:29:21;;;;;;;1.95;1.73;;;;;;;;;;4978801;28;20046;-77
2023/05/25 11:31:53;;;;;;;1.85;1.75;;;;;;;;;;4973150;28;20449;-77
2023/05/25 11:34:23;;;;;;;1.65;1.55;;;;;;;;;;4966357;28;20054;-77
2023/05/25 11:37:02;;;;;;;1.95;1.70;;;;;;;;;;4975192;28;20059;-77
2023/05/25 11:39:30;;;;;;;1.73;1.60;;;;;;;;;;4968717;28;20058;-78
2023/05/25 11:42:02;;;;;;;2.67;1.23;;;;;;;;;;4979743;28;20050;-77
2023/05/25 11:44:32;;;;;;;1.60;1.50;;;;;;;;;;4962272;28;20822;-77
2023/05/25 11:47:07;;;;;;;1.42;1.33;;;;;;;;;;4969620;28;20066;-78
2023/05/25 11:49:38;;;;;;;1.52;1.42;;;;;;;;;;4964845;28;20074;-77
2023/05/25 11:52:06;;;;;;;1.17;1.08;;;;;;;;;;4971194;28;20042;-78
2023/05/25 11:54:34;;;;;;;1.50;1.40;;;;;;;;;;4971771;28;20046;-78
2023/05/25 11:57:02;;;;;;;2.70;1.67;;;;;;;;;;4970932;28;20092;-77
2023/05/25 11:59:30;;;;;;;1.40;1.30;;;;;;;;;;4965404;28;20061;-78
2023/05/25 12:02:00;;;;;;;2.85;1.27;;;;;;;;;;4965107;28;20122;-77
2023/05/25 12:04:29;;;;;;;1.20;1.20;;;;;;;;;;4965916;28;20046;-77
2023/05/25 12:07:01;;;;;;;1.85;1.55;;;;;;;;;;4970412;28;20130;-77
2023/05/25 12:09:29;;;;;;;1.55;1.45;;;;;;;;;;4968737;28;20382;-77
2023/05/25 12:11:57;;;;;;;1.98;1.60;;;;;;;;;;4959474;28;20066;-77
2023/05/25 12:14:25;;;;;;;1.55;1.40;;;;;;;;;;4966683;28;20077;-79
2023/05/25 12:16:53;;;;;;;1.58;1.48;;;;;;;;;;4965897;28;20046;-77
2023/05/25 12:19:21;;;;;;;1.40;1.30;;;;;;;;;;4963965;28;20047;-76
2023/05/25 12:21:50;;;;;;;1.27;1.17;;;;;;;;;;4966879;28;20775;-77
2023/05/25 12:24:18;;;;;;;1.35;1.25;;;;;;;;;;4960603;28;20057;-77
2023/05/25 12:26:48;;;;;;;1.97;1.30;;;;;;;;;;4965823;28;20039;-78
2023/05/25 12:29:16;;;;;;;1.40;1.30;;;;;;;;;;4974417;28;20046;-77
2023/05/25 12:31:43;;;;;;;1.33;1.15;;;;;;;;;;4974354;28;20055;-76
2023/05/25 12:34:11;;;;;;;1.10;1.10;;;;;;;;;;4977099;28;21285;-78
2023/05/25 12:36:42;;;;;;;1.15;1.15;;;;;;;;;;4973533;28;20051;-77
2023/05/25 12:39:11;;;;;;;1.52;0.93;;;;;;;;;;4973645;28;20085;-78
2023/05/25 12:41:49;;;;;;;2.00;1.00;;;;;;;;;;4969063;28;20741;-77
2023/05/25 12:44:24;;;;;;;1.48;1.38;;;;;;;;;;4969564;28;20168;-76
2023/05/25 12:46:55;;;;;;;1.55;1.45;;;;;;;;;;4964869;28;20106;-76
2023/05/25 12:49:28;;;;;;;1.88;1.30;;;;;;;;;;4967213;28;20166;-77
2023/05/25 12:51:56;;;;;;;1.10;1.10;;;;;;;;;;4972025;28;20043;-77
2023/05/25 12:54:33;;;;;;;1.15;1.05;;;;;;;;;;4974025;28;20047;-77
2023/05/25 12:57:01;;;;;;;0.95;0.90;;;;;;;;;;4978188;28;20055;-78
2023/05/25 12:59:30;;;;;;;0.90;0.90;;;;;;;;;;4976522;28;20050;-81
2023/05/25 13:01:58;;;;;;;1.10;1.05;;;;;;;;;;4972583;28;20045;-81
2023/05/25 13:04:26;;;;;;;1.38;1.27;;;;;;;;;;4971220;28;20050;-81
2023/05/25 13:06:54;;;;;;;1.35;1.25;;;;;;;;;;4967477;28;20460;-79
2023/05/25 13:09:25;;;;;;;1.30;1.20;;;;;;;;;;4969957;28;20425;-79
2023/05/25 13:11:57;;;;;;;1.30;1.20;;;;;;;;;;4958696;28;20117;-78
2023/05/25 13:14:25;;;;;;;2.85;1.00;;;;;;;;;;4962493;28;20134;-79
2023/05/25 13:16:53;;;;;;;1.00;0.88;;;;;;;;;;4969590;28;20074;-79
2023/05/25 13:19:23;;;;;;;1.13;1.02;;;;;;;;;;4961192;28;20054;-80
2023/05/25 13:21:51;;;;;;;0.98;0.98;;;;;;;;;;4968005;28;20050;-78
2023/05/25 13:24:19;;;;;;;1.00;1.00;;;;;;;;;;4966343;28;20563;-80
2023/05/25 13:26:48;;;;;;;1.20;1.10;;;;;;;;;;4964092;28;20053;-79
2023/05/25 13:29:17;;;;;;;1.05;1.05;;;;;;;;;;4969554;28;20114;-80
2023/05/25 13:31:46;;;;;;;1.27;1.25;;;;;;;;;;4973149;28;20126;-80
2023/05/25 13:34:14;;;;;;;1.10;1.10;;;;;;;;;;4966211;28;20051;-78
2023/05/25 13:36:42;;;;;;;1.20;1.20;;;;;;;;;;4967639;28;20125;-80
2023/05/25 13:39:12;;;;;;;1.02;0.90;;;;;;;;;;4973380;28;20070;-77
2023/05/25 13:41:40;;;;;;;1.08;0.90;;;;;;;;;;4970799;28;20047;-80
2023/05/25 13:44:09;;;;;;;0.93;0.93;;;;;;;;;;4968005;28;20405;-79
2023/05/25 13:46:37;;;;;;;1.25;1.00;;;;;;;;;;4969221;28;20041;-77
2023/05/25 13:49:05;;;;;;;0.93;0.93;;;;;;;;;;4968821;28;20448;-78
2023/05/25 13:51:34;;;;;;;1.08;1.08;;;;;;;;;;4962907;28;20083;-78
2023/05/25 13:54:02;;;;;;;0.90;0.90;;;;;;;;;;4954621;28;20101;-78
2023/05/25 13:56:29;;;;;;;1.05;1.05;;;;;;;;;;4959353;28;20050;-79
2023/05/25 13:58:57;;;;;;;0.90;0.90;;;;;;;;;;4973206;28;20102;-80
2023/05/25 14:01:26;;;;;;;0.95;0.95;;;;;;;;;;4960870;28;20055;-80
2023/05/25 14:03:54;;;;;;;0.95;0.95;;;;;;;;;;4964386;28;20400;-81
2023/05/25 14:06:22;;;;;;;0.95;0.95;;;;;;;;;;4956756;28;20118;-79
2023/05/25 14:08:50;;;;;;;1.00;1.00;;;;;;;;;;4958108;28;20102;-80
2023/05/25 14:11:18;;;;;;;0.90;0.90;;;;;;;;;;4951458;28;20058;-80
2023/05/25 14:13:54;;;;;;;0.80;0.80;;;;;;;;;;4958358;28;20110;-79
2023/05/25 14:16:22;;;;;;;0.85;0.85;;;;;;;;;;4935478;28;20040;-81
2023/05/25 14:18:49;;;;;;;1.38;0.98;;;;;;;;;;4954345;28;20442;-82
2023/05/25 14:21:17;;;;;;;1.13;0.85;;;;;;;;;;4943198;29;20047;-79
2023/05/25 14:23:44;;;;;;;1.00;0.90;;;;;;;;;;4942986;28;20039;-80
2023/05/25 14:26:12;;;;;;;0.88;0.88;;;;;;;;;;4930585;28;20086;-78
2023/05/25 14:28:39;;;;;;;0.90;0.90;;;;;;;;;;4941851;28;21021;-79
2023/05/25 14:31:07;;;;;;;0.80;0.80;;;;;;;;;;4933319;29;20065;-79
2023/05/25 14:33:35;;;;;;;0.90;0.90;;;;;;;;;;4945013;28;20043;-79
2023/05/25 14:36:03;;;;;;;0.80;0.80;;;;;;;;;;4945700;28;20054;-82
2023/05/25 14:38:34;;;;;;;0.70;0.70;;;;;;;;;;4951286;29;20043;-78
2023/05/25 14:41:02;;;;;;;0.93;0.73;;;;;;;;;;4954319;28;20043;-78
2023/05/25 14:43:30;;;;;;;0.80;0.80;;;;;;;;;;4967016;28;20051;-82
2023/05/25 14:45:58;;;;;;;0.70;0.70;;;;;;;;;;4967058;28;20273;-81
2023/05/25 14:48:26;;;;;;;0.70;0.70;;;;;;;;;;4956285;28;20506;-80
2023/05/25 14:50:53;;;;;;;0.88;0.88;;;;;;;;;;4958388;28;20730;-80
2023/05/25 14:53:21;;;;;;;0.80;0.80;;;;;;;;;;4960303;28;20055;-80
2023/05/25 14:55:48;;;;;;;0.82;0.82;;;;;;;;;;4961072;28;20067;-80
2023/05/25 14:58:16;;;;;;;1.08;0.90;;;;;;;;;;4963560;28;20070;-79
2023/05/25 15:00:43;;;;;;;0.70;0.70;;;;;;;;;;4955339;28;20385;-77